sensor_id;sensor_type;location;lat;lon;timestamp;temperature;humidity
810;DHT22;387;48.772;9.186;2023-07-31T00:01:15;17.30;68.90
810;DHT22;387;48.772;9.186;2023-07-31T00:03:40;17.30;69.20
810;DHT22;387;48.772;9.186;2023-07-31T00:06:06;17.20;69.10
810;DHT22;387;48.772;9.186;2023-07-31T00:08:31;17.20;69.20
810;DHT22;387;48.772;9.186;2023-07-31T00:10:57;17.20;69.40
810;DHT22;387;48.772;9.186;2023-07-31T00:13:23;17.10;69.40
810;DHT22;387;48.772;9.186;2023-07-31T00:15:48;17.00;69.50
810;DHT22;387;48.772;9.186;2023-07-31T00:18:14;16.90;69.70
810;DHT22;387;48.772;9.186;2023-07-31T00:20:40;16.90;69.90
810;DHT22;387;48.772;9.186;2023-07-31T00:23:06;16.90;69.90
810;DHT22;387;48.772;9.186;2023-07-31T00:25:31;16.80;69.90
810;DHT22;387;48.772;9.186;2023-07-31T00:27:57;16.80;70.10
810;DHT22;387;48.772;9.186;2023-07-31T00:30:22;16.80;69.90
810;DHT22;387;48.772;9.186;2023-07-31T00:32:50;16.70;70.20
810;DHT22;387;48.772;9.186;2023-07-31T00:35:16;16.70;70.10
810;DHT22;387;48.772;9.186;2023-07-31T00:37:42;16.70;70.20
810;DHT22;387;48.772;9.186;2023-07-31T00:40:08;16.70;70.20
810;DHT22;387;48.772;9.186;2023-07-31T00:42:34;16.70;70.40
810;DHT22;387;48.772;9.186;2023-07-31T00:44:59;16.60;70.50
810;DHT22;387;48.772;9.186;2023-07-31T00:47:25;16.60;70.50
810;DHT22;387;48.772;9.186;2023-07-31T00:49:51;16.60;70.70
810;DHT22;387;48.772;9.186;2023-07-31T00:52:18;16.60;70.70
810;DHT22;387;48.772;9.186;2023-07-31T00:54:44;16.50;70.70
810;DHT22;387;48.772;9.186;2023-07-31T00:57:10;16.60;70.50
810;DHT22;387;48.772;9.186;2023-07-31T00:59:35;16.60;70.50
810;DHT22;387;48.772;9.186;2023-07-31T01:02:01;16.50;70.70
810;DHT22;387;48.772;9.186;2023-07-31T01:04:28;16.50;70.80
810;DHT22;387;48.772;9.186;2023-07-31T01:09:42;16.60;70.50
810;DHT22;387;48.772;9.186;2023-07-31T01:12:14;16.50;70.70
810;DHT22;387;48.772;9.186;2023-07-31T01:14:40;16.60;70.70
810;DHT22;387;48.772;9.186;2023-07-31T01:17:05;16.60;70.40
810;DHT22;387;48.772;9.186;2023-07-31T01:19:31;16.60;70.20
810;DHT22;387;48.772;9.186;2023-07-31T01:22:30;16.60;70.40
810;DHT22;387;48.772;9.186;2023-07-31T01:27:41;16.40;70.80
810;DHT22;387;48.772;9.186;2023-07-31T01:30:16;16.40;70.80
810;DHT22;387;48.772;9.186;2023-07-31T01:32:43;16.40;71.00
810;DHT22;387;48.772;9.186;2023-07-31T01:35:09;16.40;70.80
810;DHT22;387;48.772;9.186;2023-07-31T01:37:35;16.40;70.80
810;DHT22;387;48.772;9.186;2023-07-31T01:40:01;16.50;70.80
810;DHT22;387;48.772;9.186;2023-07-31T01:42:27;16.50;70.70
810;DHT22;387;48.772;9.186;2023-07-31T01:44:52;16.40;70.80
810;DHT22;387;48.772;9.186;2023-07-31T01:47:18;16.40;71.00
810;DHT22;387;48.772;9.186;2023-07-31T01:49:43;16.40;71.00
810;DHT22;387;48.772;9.186;2023-07-31T01:52:09;16.40;71.10
810;DHT22;387;48.772;9.186;2023-07-31T01:54:34;16.40;71.10
810;DHT22;387;48.772;9.186;2023-07-31T01:57:02;16.30;71.40
810;DHT22;387;48.772;9.186;2023-07-31T01:59:27;16.20;72.00
810;DHT22;387;48.772;9.186;2023-07-31T02:01:54;16.10;72.10
810;DHT22;387;48.772;9.186;2023-07-31T02:04:20;16.10;72.30
810;DHT22;387;48.772;9.186;2023-07-31T02:06:45;16.10;72.30
810;DHT22;387;48.772;9.186;2023-07-31T02:09:11;16.10;72.30
810;DHT22;387;48.772;9.186;2023-07-31T02:11:36;16.10;72.30
810;DHT22;387;48.772;9.186;2023-07-31T02:14:02;16.10;72.30
810;DHT22;387;48.772;9.186;2023-07-31T02:16:27;16.10;72.00
810;DHT22;387;48.772;9.186;2023-07-31T02:18:53;16.10;72.00
810;DHT22;387;48.772;9.186;2023-07-31T02:21:19;16.20;71.80
810;DHT22;387;48.772;9.186;2023-07-31T02:23:44;16.30;71.30
810;DHT22;387;48.772;9.186;2023-07-31T02:26:10;16.30;71.10
810;DHT22;387;48.772;9.186;2023-07-31T02:28:35;16.30;71.10
810;DHT22;387;48.772;9.186;2023-07-31T02:31:01;16.30;71.10
810;DHT22;387;48.772;9.186;2023-07-31T02:33:27;16.40;71.00
810;DHT22;387;48.772;9.186;2023-07-31T02:35:52;16.40;70.40
810;DHT22;387;48.772;9.186;2023-07-31T02:38:18;16.50;70.40
810;DHT22;387;48.772;9.186;2023-07-31T02:40:44;16.50;70.40
810;DHT22;387;48.772;9.186;2023-07-31T02:43:10;16.50;70.40
810;DHT22;387;48.772;9.186;2023-07-31T02:45:36;16.50;69.70
810;DHT22;387;48.772;9.186;2023-07-31T02:48:01;16.70;69.20
810;DHT22;387;48.772;9.186;2023-07-31T02:50:27;16.70;69.10
810;DHT22;387;48.772;9.186;2023-07-31T02:52:55;16.80;68.60
810;DHT22;387;48.772;9.186;2023-07-31T02:55:21;16.80;69.10
810;DHT22;387;48.772;9.186;2023-07-31T02:57:47;16.90;68.60
810;DHT22;387;48.772;9.186;2023-07-31T03:00:13;16.90;68.60
810;DHT22;387;48.772;9.186;2023-07-31T03:02:38;16.90;68.60
810;DHT22;387;48.772;9.186;2023-07-31T03:05:04;16.90;68.20
810;DHT22;387;48.772;9.186;2023-07-31T03:07:30;16.90;68.60
810;DHT22;387;48.772;9.186;2023-07-31T03:09:56;16.80;68.90
810;DHT22;387;48.772;9.186;2023-07-31T03:12:22;16.80;69.20
810;DHT22;387;48.772;9.186;2023-07-31T03:14:47;16.80;69.40
810;DHT22;387;48.772;9.186;2023-07-31T03:17:13;16.70;69.40
810;DHT22;387;48.772;9.186;2023-07-31T03:19:38;16.70;69.50
810;DHT22;387;48.772;9.186;2023-07-31T03:22:04;16.60;69.70
810;DHT22;387;48.772;9.186;2023-07-31T03:24:30;16.60;69.90
810;DHT22;387;48.772;9.186;2023-07-31T03:26:55;16.60;70.10
810;DHT22;387;48.772;9.186;2023-07-31T03:29:21;16.50;70.20
810;DHT22;387;48.772;9.186;2023-07-31T03:31:47;16.60;69.90
810;DHT22;387;48.772;9.186;2023-07-31T03:34:12;16.50;70.10
810;DHT22;387;48.772;9.186;2023-07-31T03:36:38;16.40;70.40
810;DHT22;387;48.772;9.186;2023-07-31T03:39:03;16.20;71.30
810;DHT22;387;48.772;9.186;2023-07-31T03:41:29;16.00;71.70
810;DHT22;387;48.772;9.186;2023-07-31T03:43:55;15.90;72.10
810;DHT22;387;48.772;9.186;2023-07-31T03:46:22;15.90;72.10
810;DHT22;387;48.772;9.186;2023-07-31T03:48:48;15.90;72.00
810;DHT22;387;48.772;9.186;2023-07-31T03:51:14;15.90;71.80
810;DHT22;387;48.772;9.186;2023-07-31T03:53:39;16.00;71.70
810;DHT22;387;48.772;9.186;2023-07-31T03:56:05;16.00;71.60
810;DHT22;387;48.772;9.186;2023-07-31T03:58:30;16.00;71.60
810;DHT22;387;48.772;9.186;2023-07-31T04:00:56;16.00;71.60
810;DHT22;387;48.772;9.186;2023-07-31T04:03:22;16.00;71.60
810;DHT22;387;48.772;9.186;2023-07-31T04:05:47;16.00;71.30
810;DHT22;387;48.772;9.186;2023-07-31T04:08:13;16.10;71.10
810;DHT22;387;48.772;9.186;2023-07-31T04:10:38;16.20;71.00
810;DHT22;387;48.772;9.186;2023-07-31T04:13:04;16.30;70.70
810;DHT22;387;48.772;9.186;2023-07-31T04:15:29;16.40;69.70
810;DHT22;387;48.772;9.186;2023-07-31T04:17:55;16.50;69.20
810;DHT22;387;48.772;9.186;2023-07-31T04:20:21;16.60;69.20
810;DHT22;387;48.772;9.186;2023-07-31T04:22:46;16.70;68.90
810;DHT22;387;48.772;9.186;2023-07-31T04:25:12;16.80;68.60
810;DHT22;387;48.772;9.186;2023-07-31T04:27:38;16.80;68.60
810;DHT22;387;48.772;9.186;2023-07-31T04:30:04;16.80;68.90
810;DHT22;387;48.772;9.186;2023-07-31T04:32:30;16.80;68.90
810;DHT22;387;48.772;9.186;2023-07-31T04:34:56;16.90;68.90
810;DHT22;387;48.772;9.186;2023-07-31T04:37:21;16.90;68.60
810;DHT22;387;48.772;9.186;2023-07-31T04:39:47;16.90;68.90
810;DHT22;387;48.772;9.186;2023-07-31T04:42:13;16.90;68.90
810;DHT22;387;48.772;9.186;2023-07-31T04:44:38;16.90;68.90
810;DHT22;387;48.772;9.186;2023-07-31T04:47:04;17.00;68.60
810;DHT22;387;48.772;9.186;2023-07-31T04:49:30;17.00;68.60
810;DHT22;387;48.772;9.186;2023-07-31T04:51:55;17.10;68.60
810;DHT22;387;48.772;9.186;2023-07-31T04:54:21;17.10;68.30
810;DHT22;387;48.772;9.186;2023-07-31T04:56:46;17.20;68.00
810;DHT22;387;48.772;9.186;2023-07-31T04:59:12;17.30;67.70
810;DHT22;387;48.772;9.186;2023-07-31T05:01:38;17.50;67.00
810;DHT22;387;48.772;9.186;2023-07-31T05:04:04;17.50;66.90
810;DHT22;387;48.772;9.186;2023-07-31T05:06:29;17.60;66.90
810;DHT22;387;48.772;9.186;2023-07-31T05:08:55;17.60;66.90
810;DHT22;387;48.772;9.186;2023-07-31T05:11:20;17.60;66.90
810;DHT22;387;48.772;9.186;2023-07-31T05:13:46;17.60;67.00
810;DHT22;387;48.772;9.186;2023-07-31T05:16:12;17.60;67.20
810;DHT22;387;48.772;9.186;2023-07-31T05:18:37;17.60;67.20
810;DHT22;387;48.772;9.186;2023-07-31T05:21:03;17.60;66.90
810;DHT22;387;48.772;9.186;2023-07-31T05:23:28;17.70;66.60
810;DHT22;387;48.772;9.186;2023-07-31T05:26:05;17.70;66.70
810;DHT22;387;48.772;9.186;2023-07-31T05:28:31;17.80;66.40
810;DHT22;387;48.772;9.186;2023-07-31T05:31:00;17.70;66.60
810;DHT22;387;48.772;9.186;2023-07-31T05:33:26;17.80;66.70
810;DHT22;387;48.772;9.186;2023-07-31T05:35:52;17.80;66.70
810;DHT22;387;48.772;9.186;2023-07-31T05:38:17;17.70;66.90
810;DHT22;387;48.772;9.186;2023-07-31T05:40:43;17.70;67.00
810;DHT22;387;48.772;9.186;2023-07-31T05:43:09;17.70;67.00
810;DHT22;387;48.772;9.186;2023-07-31T05:45:35;17.80;67.00
810;DHT22;387;48.772;9.186;2023-07-31T05:48:01;17.80;66.40
810;DHT22;387;48.772;9.186;2023-07-31T05:50:26;17.90;66.40
810;DHT22;387;48.772;9.186;2023-07-31T05:52:52;17.90;66.10
810;DHT22;387;48.772;9.186;2023-07-31T05:55:18;18.00;66.30
810;DHT22;387;48.772;9.186;2023-07-31T05:57:43;18.10;66.00
810;DHT22;387;48.772;9.186;2023-07-31T06:00:11;18.20;66.00
810;DHT22;387;48.772;9.186;2023-07-31T06:02:37;18.20;65.80
810;DHT22;387;48.772;9.186;2023-07-31T06:05:04;18.20;65.80
810;DHT22;387;48.772;9.186;2023-07-31T06:07:31;18.30;66.00
810;DHT22;387;48.772;9.186;2023-07-31T06:09:57;18.30;66.00
810;DHT22;387;48.772;9.186;2023-07-31T06:12:28;18.40;66.10
810;DHT22;387;48.772;9.186;2023-07-31T06:14:54;18.50;66.00
810;DHT22;387;48.772;9.186;2023-07-31T06:17:20;18.50;65.80
810;DHT22;387;48.772;9.186;2023-07-31T06:19:46;18.50;65.30
810;DHT22;387;48.772;9.186;2023-07-31T06:22:12;18.50;65.80
810;DHT22;387;48.772;9.186;2023-07-31T06:24:38;18.70;65.10
810;DHT22;387;48.772;9.186;2023-07-31T06:27:04;18.70;65.10
810;DHT22;387;48.772;9.186;2023-07-31T06:29:31;18.70;65.00
810;DHT22;387;48.772;9.186;2023-07-31T06:31:57;18.80;65.00
810;DHT22;387;48.772;9.186;2023-07-31T06:34:22;18.90;64.40
810;DHT22;387;48.772;9.186;2023-07-31T06:36:48;19.00;64.40
810;DHT22;387;48.772;9.186;2023-07-31T06:39:13;19.10;64.40
810;DHT22;387;48.772;9.186;2023-07-31T06:41:39;19.10;64.20
810;DHT22;387;48.772;9.186;2023-07-31T06:44:05;19.20;64.20
810;DHT22;387;48.772;9.186;2023-07-31T06:46:30;19.20;64.10
810;DHT22;387;48.772;9.186;2023-07-31T06:48:56;19.20;64.10
810;DHT22;387;48.772;9.186;2023-07-31T06:51:21;19.20;64.20
810;DHT22;387;48.772;9.186;2023-07-31T06:53:47;19.20;64.20
810;DHT22;387;48.772;9.186;2023-07-31T06:56:13;19.20;64.20
810;DHT22;387;48.772;9.186;2023-07-31T06:58:39;19.30;64.10
810;DHT22;387;48.772;9.186;2023-07-31T07:01:04;19.40;64.10
810;DHT22;387;48.772;9.186;2023-07-31T07:03:30;19.50;63.70
810;DHT22;387;48.772;9.186;2023-07-31T07:05:56;19.60;63.80
810;DHT22;387;48.772;9.186;2023-07-31T07:08:21;19.70;63.70
810;DHT22;387;48.772;9.186;2023-07-31T07:10:47;19.70;63.70
810;DHT22;387;48.772;9.186;2023-07-31T07:13:13;19.70;63.90
810;DHT22;387;48.772;9.186;2023-07-31T07:15:39;19.60;63.80
810;DHT22;387;48.772;9.186;2023-07-31T07:18:04;19.60;63.80
810;DHT22;387;48.772;9.186;2023-07-31T07:20:30;19.70;63.20
810;DHT22;387;48.772;9.186;2023-07-31T07:22:56;19.80;63.40
810;DHT22;387;48.772;9.186;2023-07-31T07:25:21;20.00;62.90
810;DHT22;387;48.772;9.186;2023-07-31T07:27:47;20.10;62.80
810;DHT22;387;48.772;9.186;2023-07-31T07:30:13;20.10;62.90
810;DHT22;387;48.772;9.186;2023-07-31T07:32:39;20.20;62.30
810;DHT22;387;48.772;9.186;2023-07-31T07:35:06;20.30;62.80
810;DHT22;387;48.772;9.186;2023-07-31T07:37:31;20.40;62.60
810;DHT22;387;48.772;9.186;2023-07-31T07:39:57;20.50;62.50
810;DHT22;387;48.772;9.186;2023-07-31T07:42:23;20.30;61.90
810;DHT22;387;48.772;9.186;2023-07-31T07:44:49;20.20;62.50
810;DHT22;387;48.772;9.186;2023-07-31T07:47:14;20.30;62.60
810;DHT22;387;48.772;9.186;2023-07-31T07:49:40;20.30;62.50
810;DHT22;387;48.772;9.186;2023-07-31T07:52:06;20.30;62.60
810;DHT22;387;48.772;9.186;2023-07-31T07:54:31;20.30;62.60
810;DHT22;387;48.772;9.186;2023-07-31T07:56:57;20.30;63.10
810;DHT22;387;48.772;9.186;2023-07-31T07:59:23;20.30;64.10
810;DHT22;387;48.772;9.186;2023-07-31T08:01:49;20.40;64.10
810;DHT22;387;48.772;9.186;2023-07-31T08:04:14;20.30;63.90
810;DHT22;387;48.772;9.186;2023-07-31T08:06:40;20.40;64.10
810;DHT22;387;48.772;9.186;2023-07-31T08:09:06;20.50;63.40
810;DHT22;387;48.772;9.186;2023-07-31T08:11:34;20.70;63.50
810;DHT22;387;48.772;9.186;2023-07-31T08:14:00;20.70;62.90
810;DHT22;387;48.772;9.186;2023-07-31T08:16:26;20.70;63.20
810;DHT22;387;48.772;9.186;2023-07-31T08:18:52;20.60;63.10
810;DHT22;387;48.772;9.186;2023-07-31T08:21:17;20.60;63.20
810;DHT22;387;48.772;9.186;2023-07-31T08:23:43;20.60;63.40
810;DHT22;387;48.772;9.186;2023-07-31T08:26:15;20.50;63.10
810;DHT22;387;48.772;9.186;2023-07-31T08:28:41;20.60;62.80
810;DHT22;387;48.772;9.186;2023-07-31T08:31:06;20.50;63.10
810;DHT22;387;48.772;9.186;2023-07-31T08:33:32;20.60;63.50
810;DHT22;387;48.772;9.186;2023-07-31T08:35:57;20.80;62.60
810;DHT22;387;48.772;9.186;2023-07-31T08:38:26;20.80;62.80
810;DHT22;387;48.772;9.186;2023-07-31T08:40:51;20.90;62.80
810;DHT22;387;48.772;9.186;2023-07-31T08:43:19;21.10;62.20
810;DHT22;387;48.772;9.186;2023-07-31T08:45:45;21.10;62.00
810;DHT22;387;48.772;9.186;2023-07-31T08:48:12;21.20;62.30
810;DHT22;387;48.772;9.186;2023-07-31T08:50:38;21.20;61.20
810;DHT22;387;48.772;9.186;2023-07-31T08:53:04;21.20;61.90
810;DHT22;387;48.772;9.186;2023-07-31T08:55:32;21.30;62.00
810;DHT22;387;48.772;9.186;2023-07-31T08:57:58;21.30;62.00
810;DHT22;387;48.772;9.186;2023-07-31T09:00:25;21.50;61.90
810;DHT22;387;48.772;9.186;2023-07-31T09:03:08;21.50;61.90
810;DHT22;387;48.772;9.186;2023-07-31T09:05:36;21.80;61.20
810;DHT22;387;48.772;9.186;2023-07-31T09:08:05;21.80;61.20
810;DHT22;387;48.772;9.186;2023-07-31T09:10:31;21.80;60.60
810;DHT22;387;48.772;9.186;2023-07-31T09:12:57;21.80;60.10
810;DHT22;387;48.772;9.186;2023-07-31T09:15:24;21.90;60.10
810;DHT22;387;48.772;9.186;2023-07-31T09:18:02;21.80;60.30
810;DHT22;387;48.772;9.186;2023-07-31T09:20:27;21.60;60.90
810;DHT22;387;48.772;9.186;2023-07-31T09:22:55;21.70;61.30
810;DHT22;387;48.772;9.186;2023-07-31T09:27:58;21.80;61.00
810;DHT22;387;48.772;9.186;2023-07-31T09:30:24;21.70;61.50
810;DHT22;387;48.772;9.186;2023-07-31T09:32:51;21.70;61.30
810;DHT22;387;48.772;9.186;2023-07-31T09:35:28;21.80;61.50
810;DHT22;387;48.772;9.186;2023-07-31T09:37:57;21.80;61.20
810;DHT22;387;48.772;9.186;2023-07-31T09:40:31;21.50;61.60
810;DHT22;387;48.772;9.186;2023-07-31T09:46:13;21.40;62.50
810;DHT22;387;48.772;9.186;2023-07-31T09:48:39;21.40;62.30
810;DHT22;387;48.772;9.186;2023-07-31T09:51:05;21.50;62.20
810;DHT22;387;48.772;9.186;2023-07-31T09:53:30;21.50;62.20
810;DHT22;387;48.772;9.186;2023-07-31T09:55:58;21.60;62.00
810;DHT22;387;48.772;9.186;2023-07-31T09:58:24;21.60;61.70
810;DHT22;387;48.772;9.186;2023-07-31T10:00:53;21.70;61.00
810;DHT22;387;48.772;9.186;2023-07-31T10:03:19;21.70;61.50
810;DHT22;387;48.772;9.186;2023-07-31T10:05:49;22.00;61.60
810;DHT22;387;48.772;9.186;2023-07-31T10:08:16;22.20;60.60
810;DHT22;387;48.772;9.186;2023-07-31T10:10:44;22.20;60.60
810;DHT22;387;48.772;9.186;2023-07-31T10:13:11;22.30;60.30
810;DHT22;387;48.772;9.186;2023-07-31T10:15:38;22.70;59.50
810;DHT22;387;48.772;9.186;2023-07-31T10:18:06;23.00;58.80
810;DHT22;387;48.772;9.186;2023-07-31T10:20:32;22.90;57.70
810;DHT22;387;48.772;9.186;2023-07-31T10:22:59;22.70;59.10
810;DHT22;387;48.772;9.186;2023-07-31T10:25:26;22.60;59.20
810;DHT22;387;48.772;9.186;2023-07-31T10:27:53;22.60;59.30
810;DHT22;387;48.772;9.186;2023-07-31T10:30:21;22.80;59.20
810;DHT22;387;48.772;9.186;2023-07-31T10:32:48;22.80;59.10
810;DHT22;387;48.772;9.186;2023-07-31T10:35:16;23.00;59.20
810;DHT22;387;48.772;9.186;2023-07-31T10:37:43;23.10;58.70
810;DHT22;387;48.772;9.186;2023-07-31T10:45:37;22.90;58.80
810;DHT22;387;48.772;9.186;2023-07-31T10:48:14;22.70;59.50
810;DHT22;387;48.772;9.186;2023-07-31T10:50:51;22.70;59.20
810;DHT22;387;48.772;9.186;2023-07-31T10:53:30;22.80;58.90
810;DHT22;387;48.772;9.186;2023-07-31T10:56:03;22.80;59.10
810;DHT22;387;48.772;9.186;2023-07-31T10:58:30;23.00;58.50
810;DHT22;387;48.772;9.186;2023-07-31T11:01:00;23.20;58.80
810;DHT22;387;48.772;9.186;2023-07-31T11:06:06;23.30;57.40
810;DHT22;387;48.772;9.186;2023-07-31T11:08:38;23.50;57.80
810;DHT22;387;48.772;9.186;2023-07-31T11:11:08;23.60;56.80
810;DHT22;387;48.772;9.186;2023-07-31T11:16:09;22.90;58.50
810;DHT22;387;48.772;9.186;2023-07-31T11:18:35;22.90;58.40
810;DHT22;387;48.772;9.186;2023-07-31T11:21:02;23.10;58.70
810;DHT22;387;48.772;9.186;2023-07-31T11:23:27;23.20;58.10
810;DHT22;387;48.772;9.186;2023-07-31T11:25:59;23.10;58.40
810;DHT22;387;48.772;9.186;2023-07-31T11:28:25;23.00;58.40
810;DHT22;387;48.772;9.186;2023-07-31T11:30:50;22.90;58.50
810;DHT22;387;48.772;9.186;2023-07-31T11:33:16;23.00;58.40
810;DHT22;387;48.772;9.186;2023-07-31T11:35:47;23.10;58.40
810;DHT22;387;48.772;9.186;2023-07-31T11:38:24;23.10;58.50
810;DHT22;387;48.772;9.186;2023-07-31T11:40:51;22.90;59.30
810;DHT22;387;48.772;9.186;2023-07-31T11:43:18;23.00;59.30
810;DHT22;387;48.772;9.186;2023-07-31T11:45:56;23.10;58.80
810;DHT22;387;48.772;9.186;2023-07-31T11:48:26;23.30;58.80
810;DHT22;387;48.772;9.186;2023-07-31T11:50:56;23.30;58.90
810;DHT22;387;48.772;9.186;2023-07-31T11:55:54;23.30;57.80
810;DHT22;387;48.772;9.186;2023-07-31T11:58:20;23.30;58.70
810;DHT22;387;48.772;9.186;2023-07-31T12:00:47;23.30;58.90
810;DHT22;387;48.772;9.186;2023-07-31T12:03:13;23.40;58.70
810;DHT22;387;48.772;9.186;2023-07-31T12:05:39;23.40;58.80
810;DHT22;387;48.772;9.186;2023-07-31T12:08:12;23.40;58.70
810;DHT22;387;48.772;9.186;2023-07-31T12:10:39;23.50;58.80
810;DHT22;387;48.772;9.186;2023-07-31T12:13:10;23.70;58.10
810;DHT22;387;48.772;9.186;2023-07-31T12:15:40;23.60;58.50
810;DHT22;387;48.772;9.186;2023-07-31T12:18:19;23.50;58.80
810;DHT22;387;48.772;9.186;2023-07-31T12:20:47;23.40;58.80
810;DHT22;387;48.772;9.186;2023-07-31T12:23:19;23.40;59.30
810;DHT22;387;48.772;9.186;2023-07-31T12:26:13;23.50;59.20
810;DHT22;387;48.772;9.186;2023-07-31T12:28:49;23.50;59.30
810;DHT22;387;48.772;9.186;2023-07-31T12:31:22;23.30;58.70
810;DHT22;387;48.772;9.186;2023-07-31T12:33:50;23.10;59.30
810;DHT22;387;48.772;9.186;2023-07-31T12:36:21;23.10;59.90
810;DHT22;387;48.772;9.186;2023-07-31T12:38:47;23.10;59.70
810;DHT22;387;48.772;9.186;2023-07-31T12:41:13;23.10;59.60
810;DHT22;387;48.772;9.186;2023-07-31T12:43:40;23.00;59.70
810;DHT22;387;48.772;9.186;2023-07-31T12:46:07;22.90;59.20
810;DHT22;387;48.772;9.186;2023-07-31T12:48:34;22.80;59.20
810;DHT22;387;48.772;9.186;2023-07-31T12:51:00;22.70;59.50
810;DHT22;387;48.772;9.186;2023-07-31T12:53:25;22.70;59.90
810;DHT22;387;48.772;9.186;2023-07-31T12:55:51;22.70;59.60
810;DHT22;387;48.772;9.186;2023-07-31T12:58:17;22.70;59.90
810;DHT22;387;48.772;9.186;2023-07-31T13:00:42;22.70;59.50
810;DHT22;387;48.772;9.186;2023-07-31T13:03:08;22.70;59.50
810;DHT22;387;48.772;9.186;2023-07-31T13:05:34;22.70;59.30
810;DHT22;387;48.772;9.186;2023-07-31T13:08:00;22.90;59.20
810;DHT22;387;48.772;9.186;2023-07-31T13:10:26;23.20;59.10
810;DHT22;387;48.772;9.186;2023-07-31T13:12:52;23.30;58.80
810;DHT22;387;48.772;9.186;2023-07-31T13:15:18;23.30;59.20
810;DHT22;387;48.772;9.186;2023-07-31T13:17:44;23.40;58.90
810;DHT22;387;48.772;9.186;2023-07-31T13:20:09;23.50;58.80
810;DHT22;387;48.772;9.186;2023-07-31T13:22:35;23.40;58.40
810;DHT22;387;48.772;9.186;2023-07-31T13:25:01;23.50;58.00
810;DHT22;387;48.772;9.186;2023-07-31T13:27:26;23.30;57.80
810;DHT22;387;48.772;9.186;2023-07-31T13:29:52;23.50;58.20
810;DHT22;387;48.772;9.186;2023-07-31T13:32:18;23.70;57.40
810;DHT22;387;48.772;9.186;2023-07-31T13:34:45;24.00;58.10
810;DHT22;387;48.772;9.186;2023-07-31T13:37:11;24.70;56.00
810;DHT22;387;48.772;9.186;2023-07-31T13:39:37;25.00;55.40
810;DHT22;387;48.772;9.186;2023-07-31T13:42:03;25.30;54.10
810;DHT22;387;48.772;9.186;2023-07-31T13:44:32;25.00;54.40
810;DHT22;387;48.772;9.186;2023-07-31T13:46:58;25.00;55.20
810;DHT22;387;48.772;9.186;2023-07-31T13:49:23;25.00;55.00
810;DHT22;387;48.772;9.186;2023-07-31T13:51:49;25.10;55.40
810;DHT22;387;48.772;9.186;2023-07-31T13:54:15;25.10;54.80
810;DHT22;387;48.772;9.186;2023-07-31T13:56:42;24.90;55.60
810;DHT22;387;48.772;9.186;2023-07-31T13:59:08;24.70;55.70
810;DHT22;387;48.772;9.186;2023-07-31T14:01:33;24.60;56.20
810;DHT22;387;48.772;9.186;2023-07-31T14:03:59;24.40;56.20
810;DHT22;387;48.772;9.186;2023-07-31T14:06:25;24.10;57.20
810;DHT22;387;48.772;9.186;2023-07-31T14:08:50;24.00;57.70
810;DHT22;387;48.772;9.186;2023-07-31T14:11:16;24.10;58.00
810;DHT22;387;48.772;9.186;2023-07-31T14:13:42;24.30;57.20
810;DHT22;387;48.772;9.186;2023-07-31T14:16:07;24.30;57.60
810;DHT22;387;48.772;9.186;2023-07-31T14:18:33;24.40;57.60
810;DHT22;387;48.772;9.186;2023-07-31T14:20:59;24.40;57.20
810;DHT22;387;48.772;9.186;2023-07-31T14:23:25;24.40;57.40
810;DHT22;387;48.772;9.186;2023-07-31T14:25:50;24.60;56.80
810;DHT22;387;48.772;9.186;2023-07-31T14:28:16;24.60;57.30
810;DHT22;387;48.772;9.186;2023-07-31T14:30:42;24.60;57.40
810;DHT22;387;48.772;9.186;2023-07-31T14:33:07;24.60;58.10
810;DHT22;387;48.772;9.186;2023-07-31T14:35:34;24.50;57.70
810;DHT22;387;48.772;9.186;2023-07-31T14:38:00;24.40;58.40
810;DHT22;387;48.772;9.186;2023-07-31T14:40:26;24.30;58.50
810;DHT22;387;48.772;9.186;2023-07-31T14:42:51;24.20;58.90
810;DHT22;387;48.772;9.186;2023-07-31T14:45:17;24.20;58.70
810;DHT22;387;48.772;9.186;2023-07-31T14:47:43;24.30;58.90
810;DHT22;387;48.772;9.186;2023-07-31T14:50:09;24.40;58.50
810;DHT22;387;48.772;9.186;2023-07-31T14:52:35;24.60;58.10
810;DHT22;387;48.772;9.186;2023-07-31T14:55:03;24.80;57.60
810;DHT22;387;48.772;9.186;2023-07-31T14:57:29;24.80;56.20
810;DHT22;387;48.772;9.186;2023-07-31T14:59:55;24.70;56.50
810;DHT22;387;48.772;9.186;2023-07-31T15:02:20;24.60;56.60
810;DHT22;387;48.772;9.186;2023-07-31T15:04:46;25.00;56.00
810;DHT22;387;48.772;9.186;2023-07-31T15:07:12;25.30;55.00
810;DHT22;387;48.772;9.186;2023-07-31T15:09:39;25.20;54.90
810;DHT22;387;48.772;9.186;2023-07-31T15:12:05;25.30;55.00
810;DHT22;387;48.772;9.186;2023-07-31T15:14:31;25.20;54.60
810;DHT22;387;48.772;9.186;2023-07-31T15:16:56;25.20;54.20
810;DHT22;387;48.772;9.186;2023-07-31T15:19:22;25.20;54.50
810;DHT22;387;48.772;9.186;2023-07-31T15:21:49;25.50;53.80
810;DHT22;387;48.772;9.186;2023-07-31T15:24:14;25.90;53.60
810;DHT22;387;48.772;9.186;2023-07-31T15:26:40;26.20;52.80
810;DHT22;387;48.772;9.186;2023-07-31T15:29:07;26.50;51.70
810;DHT22;387;48.772;9.186;2023-07-31T15:31:44;26.10;52.00
810;DHT22;387;48.772;9.186;2023-07-31T15:34:10;25.80;53.20
810;DHT22;387;48.772;9.186;2023-07-31T15:36:35;25.90;53.30
810;DHT22;387;48.772;9.186;2023-07-31T15:39:01;26.10;52.90
810;DHT22;387;48.772;9.186;2023-07-31T15:41:27;26.30;52.50
810;DHT22;387;48.772;9.186;2023-07-31T15:43:55;26.70;52.00
810;DHT22;387;48.772;9.186;2023-07-31T15:46:20;26.50;51.70
810;DHT22;387;48.772;9.186;2023-07-31T15:48:46;26.30;52.00
810;DHT22;387;48.772;9.186;2023-07-31T15:51:11;26.30;52.50
810;DHT22;387;48.772;9.186;2023-07-31T15:53:37;26.00;52.40
810;DHT22;387;48.772;9.186;2023-07-31T15:56:03;26.00;53.20
810;DHT22;387;48.772;9.186;2023-07-31T15:58:29;26.10;52.00
810;DHT22;387;48.772;9.186;2023-07-31T16:00:54;25.70;53.30
810;DHT22;387;48.772;9.186;2023-07-31T16:03:20;25.60;54.20
810;DHT22;387;48.772;9.186;2023-07-31T16:05:49;26.00;53.40
810;DHT22;387;48.772;9.186;2023-07-31T16:08:15;26.10;53.40
810;DHT22;387;48.772;9.186;2023-07-31T16:10:40;26.40;52.60
810;DHT22;387;48.772;9.186;2023-07-31T16:13:06;26.60;52.80
810;DHT22;387;48.772;9.186;2023-07-31T16:15:32;26.80;52.40
810;DHT22;387;48.772;9.186;2023-07-31T16:17:57;27.10;51.30
810;DHT22;387;48.772;9.186;2023-07-31T16:20:26;27.20;50.50
810;DHT22;387;48.772;9.186;2023-07-31T16:22:52;26.90;50.50
810;DHT22;387;48.772;9.186;2023-07-31T16:25:19;26.40;51.60
810;DHT22;387;48.772;9.186;2023-07-31T16:27:44;26.10;52.90
810;DHT22;387;48.772;9.186;2023-07-31T16:30:10;25.80;53.70
810;DHT22;387;48.772;9.186;2023-07-31T16:32:36;25.60;53.80
810;DHT22;387;48.772;9.186;2023-07-31T16:35:02;25.40;54.60
810;DHT22;387;48.772;9.186;2023-07-31T16:37:28;25.40;54.80
810;DHT22;387;48.772;9.186;2023-07-31T16:39:54;25.40;54.90
810;DHT22;387;48.772;9.186;2023-07-31T16:42:20;25.50;54.80
810;DHT22;387;48.772;9.186;2023-07-31T16:44:46;25.60;54.80
810;DHT22;387;48.772;9.186;2023-07-31T16:47:12;25.50;55.00
810;DHT22;387;48.772;9.186;2023-07-31T16:49:37;25.30;55.20
810;DHT22;387;48.772;9.186;2023-07-31T16:52:03;25.10;55.60
810;DHT22;387;48.772;9.186;2023-07-31T16:54:29;24.90;56.40